Time;durP1;ratioP1;P1;durP2;ratioP2;P2;SDS_P1;SDS_P2;PMS_P1;PMS_P2;Temp;Humidity;BMP_temperature;BMP_pressure;BME280_temperature;BME280_humidity;BME280_pressure;Samples;Min_cycle;Max_cycle;Signal;HPM_P1;HPM_P2
2023/08/18 01:42:40;;;;;;;19.30;13.10;;;;;;;21.37;78.85;100790.34;1866347;76;27484;-47
2023/08/18 01:45:11;;;;;;;27.22;14.55;;;;;;;21.25;79.57;100761.08;1823987;77;25498;-45
2023/08/18 01:47:38;;;;;;;27.40;17.20;;;;;;;21.17;80.53;100749.16;1824509;78;27460;-45
2023/08/18 01:50:07;;;;;;;40.67;31.62;;;;;;;21.14;81.35;100755.40;1824396;78;25440;-45
2023/08/18 01:52:33;;;;;;;19.52;16.85;;;;;;;21.13;82.08;100760.70;1804212;78;25531;-46
2023/08/18 01:54:59;;;;;;;26.93;16.12;;;;;;;21.11;82.88;100747.88;1824411;78;25581;-46
2023/08/18 01:57:26;;;;;;;18.55;13.45;;;;;;;21.09;83.14;100729.59;1824525;78;25628;-47
2023/08/18 01:59:53;;;;;;;13.55;11.40;;;;;;;21.11;83.75;100725.88;1803956;78;27433;-48
2023/08/18 02:02:19;;;;;;;16.40;12.18;;;;;;;21.11;84.19;100715.47;1824356;78;25737;-47
2023/08/18 02:04:45;;;;;;;15.20;11.43;;;;;;;21.10;84.80;100710.56;1824462;78;25562;-48
2023/08/18 02:07:12;;;;;;;17.98;11.25;;;;;;;21.10;85.22;100718.03;1824411;78;25458;-47
2023/08/18 02:09:38;;;;;;;11.63;10.43;;;;;;;21.10;85.32;100713.31;1824418;78;25600;-46
2023/08/18 02:12:07;;;;;;;15.88;10.40;;;;;;;21.09;85.33;100714.46;1824462;78;28193;-47
2023/08/18 02:14:33;;;;;;;10.83;9.73;;;;;;;21.06;85.21;100719.33;1824584;77;25572;-47
2023/08/18 02:16:59;;;;;;;11.65;9.53;;;;;;;20.99;85.66;100731.00;1824392;78;25542;-46
2023/08/18 02:19:26;;;;;;;10.15;8.38;;;;;;;20.92;85.69;100737.77;1824391;78;25360;-46
2023/08/18 02:21:52;;;;;;;13.08;9.08;;;;;;;20.82;85.46;100743.34;1824431;77;25544;-48
2023/08/18 02:24:18;;;;;;;11.53;8.90;;;;;;;20.74;85.64;100738.87;1824411;78;27500;-46
2023/08/18 02:26:45;;;;;;;12.58;9.68;;;;;;;20.70;86.14;100727.83;1824281;78;25615;-47
2023/08/18 02:29:11;;;;;;;11.00;9.20;;;;;;;20.68;86.91;100715.59;1824414;78;25530;-49
2023/08/18 02:31:37;;;;;;;12.18;9.13;;;;;;;20.68;87.58;100699.11;1824340;78;25404;-47
2023/08/18 02:34:03;;;;;;;14.43;10.72;;;;;;;20.69;87.89;100697.95;1824493;78;25569;-46
2023/08/18 02:36:29;;;;;;;14.85;11.78;;;;;;;20.69;88.19;100685.59;1803847;78;27131;-47
2023/08/18 02:38:55;;;;;;;10.98;9.18;;;;;;;20.69;88.40;100678.72;1824303;78;25532;-47
2023/08/18 02:41:23;;;;;;;14.33;10.32;;;;;;;20.69;88.57;100686.38;1824317;77;25643;-47
2023/08/18 02:43:50;;;;;;;15.25;10.15;;;;;;;20.67;88.61;100677.71;1824340;78;25427;-46
2023/08/18 02:46:16;;;;;;;12.33;9.65;;;;;;;20.68;88.69;100673.00;1824432;78;25624;-46
2023/08/18 02:48:42;;;;;;;11.45;9.58;;;;;;;20.67;88.73;100674.15;1824391;78;27531;-46
2023/08/18 02:51:10;;;;;;;10.30;9.23;;;;;;;20.65;88.82;100671.80;1824267;78;27273;-48
2023/08/18 02:53:38;;;;;;;10.68;9.05;;;;;;;20.64;89.05;100671.57;1823929;78;25480;-48
2023/08/18 02:56:05;;;;;;;11.70;8.83;;;;;;;20.63;89.04;100671.34;1823775;78;25601;-46
2023/08/18 02:58:33;;;;;;;12.68;8.75;;;;;;;20.62;89.07;100667.56;1823836;78;25432;-46
2023/08/18 03:01:04;;;;;;;11.93;9.10;;;;;;;20.61;89.26;100674.23;1824032;78;27460;-47
2023/08/18 03:03:30;;;;;;;11.48;9.98;;;;;;;20.59;89.52;100667.73;1823663;77;25872;-47
2023/08/18 03:06:04;;;;;;;15.50;13.90;;;;;;;20.60;89.92;100665.77;1823782;78;25443;-49
2023/08/18 03:08:30;;;;;;;39.80;36.93;;;;;;;20.60;90.42;100662.45;1822511;78;26306;-49
2023/08/18 03:11:00;;;;;;;50.28;46.80;;;;;;;20.61;90.43;100670.11;1803341;78;25475;-46
2023/08/18 03:13:27;;;;;;;58.95;55.35;;;;;;;20.58;90.25;100675.75;1823965;78;27473;-47
2023/08/18 03:15:54;;;;;;;66.85;62.62;;;;;;;20.56;90.20;100675.33;1823699;78;25605;-47
2023/08/18 03:18:20;;;;;;;80.25;75.32;;;;;;;20.53;90.25;100668.63;1823799;78;25521;-48
2023/08/18 03:20:48;;;;;;;80.83;75.83;;;;;;;20.53;90.54;100667.81;1823718;78;25529;-47
2023/08/18 03:23:18;;;;;;;79.25;74.35;;;;;;;20.52;91.11;100673.12;1823830;78;25367;-50
2023/08/18 03:25:44;;;;;;;80.38;75.37;;;;;;;20.53;91.30;100671.94;1823803;78;27450;-50
2023/08/18 03:28:11;;;;;;;81.02;75.92;;;;;;;20.51;91.17;100669.55;1823644;78;25597;-47
2023/08/18 03:30:39;;;;;;;81.57;76.53;;;;;;;20.49;91.01;100674.63;1823809;78;25554;-50
2023/08/18 03:33:07;;;;;;;79.80;74.75;;;;;;;20.46;90.79;100674.58;1823756;78;25603;-48
2023/08/18 03:35:38;;;;;;;82.47;77.08;;;;;;;20.44;90.88;100683.77;1823826;78;25593;-49
2023/08/18 03:38:05;;;;;;;67.32;62.83;;;;;;;20.41;91.13;100670.17;1823824;78;27474;-47
2023/08/18 03:40:32;;;;;;;11.93;9.03;;;;;;;20.39;91.37;100675.24;1823706;78;25734;-47
2023/08/18 03:42:58;;;;;;;10.75;9.63;;;;;;;20.38;91.66;100687.41;1823706;77;25575;-47
2023/08/18 03:45:25;;;;;;;13.68;10.25;;;;;;;20.37;91.82;100680.31;1823782;78;25520;-47
2023/08/18 03:47:51;;;;;;;17.40;10.60;;;;;;;20.37;92.10;100674.04;1823753;78;25418;-47
2023/08/18 03:50:21;;;;;;;11.93;10.32;;;;;;;20.37;92.63;100674.83;1823779;78;27500;-47
2023/08/18 03:52:46;;;;;;;13.28;10.85;;;;;;;20.37;92.85;100674.04;1823474;78;25623;-47
2023/08/18 03:55:13;;;;;;;11.63;10.43;;;;;;;20.38;93.17;100680.55;1823800;78;25383;-47
2023/08/18 03:57:39;;;;;;;13.55;10.50;;;;;;;20.39;93.16;100679.95;1823692;78;25458;-47
2023/08/18 04:00:11;;;;;;;13.78;12.07;;;;;;;20.39;93.30;100678.58;1803298;78;25644;-47
2023/08/18 04:02:37;;;;;;;19.52;13.68;;;;;;;20.42;93.85;100675.89;1823753;78;28144;-47
2023/08/18 04:05:06;;;;;;;14.95;12.13;;;;;;;20.43;93.97;100674.74;1823639;78;25409;-47
2023/08/18 04:07:32;;;;;;;16.85;13.40;;;;;;;20.45;94.37;100677.91;1823893;78;25415;-53
2023/08/18 04:09:58;;;;;;;19.35;13.00;;;;;;;20.48;94.83;100677.18;1823705;78;27414;-47
2023/08/18 04:12:25;;;;;;;19.62;14.47;;;;;;;20.50;94.86;100669.36;1823812;78;25438;-46
2023/08/18 04:14:51;;;;;;;14.80;12.75;;;;;;;20.52;95.15;100671.74;1823743;78;27580;-46
2023/08/18 04:17:18;;;;;;;20.27;16.65;;;;;;;20.55;95.27;100664.70;1823638;78;25804;-47
2023/08/18 04:19:44;;;;;;;38.17;35.20;;;;;;;20.59;95.47;100664.20;1823729;78;25545;-47
2023/08/18 04:22:10;;;;;;;69.10;64.75;;;;;;;20.62;96.10;100664.81;1823704;78;25544;-49
2023/08/18 04:24:38;;;;;;;81.70;76.30;;;;;;;20.64;96.14;100659.20;1823810;77;25610;-47
2023/08/18 04:27:04;;;;;;;83.33;78.02;;;;;;;20.66;96.15;100666.49;1823706;78;27455;-46
2023/08/18 04:29:31;;;;;;;84.58;78.87;;;;;;;20.68;96.25;100659.26;1823662;78;25371;-48
2023/08/18 04:31:58;;;;;;;88.78;82.85;;;;;;;20.70;96.26;100659.67;1823725;78;25439;-48
2023/08/18 04:34:24;;;;;;;85.77;79.95;;;;;;;20.71;96.19;100661.27;1823671;78;25364;-47
2023/08/18 04:36:50;;;;;;;84.00;78.60;;;;;;;20.72;96.04;100657.34;1803011;78;25616;-47
2023/08/18 04:39:16;;;;;;;86.32;80.62;;;;;;;20.71;95.85;100659.31;1823714;78;27505;-47
2023/08/18 04:41:42;;;;;;;87.12;81.42;;;;;;;20.71;96.22;100649.69;1823467;78;25825;-47
2023/08/18 04:44:09;;;;;;;85.32;79.95;;;;;;;20.74;96.50;100656.98;1823693;78;25365;-47
2023/08/18 04:46:35;;;;;;;85.83;80.10;;;;;;;20.75;96.72;100646.99;1823658;78;25379;-46
2023/08/18 04:49:03;;;;;;;86.82;81.15;;;;;;;20.76;96.94;100655.46;1823674;78;25428;-49
2023/08/18 04:51:30;;;;;;;86.65;80.75;;;;;;;20.77;97.00;100652.94;1823828;78;27495;-46
2023/08/18 04:53:57;;;;;;;86.37;80.87;;;;;;;20.77;96.44;100657.63;1823614;78;25615;-46
2023/08/18 04:56:24;;;;;;;86.87;81.25;;;;;;;20.77;96.84;100652.94;1823648;78;25495;-47
2023/08/18 04:58:50;;;;;;;85.00;79.55;;;;;;;20.78;97.08;100658.63;1823652;78;25440;-45
2023/08/18 05:01:16;;;;;;;84.80;79.20;;;;;;;20.80;97.28;100648.64;1823682;78;25439;-48
2023/08/18 05:03:42;;;;;;;84.62;79.22;;;;;;;20.80;97.47;100650.80;1823773;78;27412;-47
2023/08/18 05:06:08;;;;;;;83.87;78.57;;;;;;;20.82;97.64;100643.56;1823685;78;25589;-47
2023/08/18 05:08:39;;;;;;;88.42;82.47;;;;;;;20.83;97.68;100646.53;1823641;78;25364;-48
2023/08/18 05:11:08;;;;;;;87.22;81.78;;;;;;;20.83;97.80;100645.94;1823719;78;25620;-47
2023/08/18 05:13:37;;;;;;;52.10;48.33;;;;;;;20.84;97.96;100650.84;1823752;78;25420;-47
2023/08/18 05:16:05;;;;;;;25.02;22.70;;;;;;;20.85;97.78;100646.36;1803464;78;28017;-45
2023/08/18 05:18:33;;;;;;;52.48;48.90;;;;;;;20.86;97.95;100649.33;1823669;78;25585;-47
2023/08/18 05:21:02;;;;;;;70.28;65.75;;;;;;;20.88;98.59;100644.25;1823765;78;25402;-46
2023/08/18 05:23:30;;;;;;;;;;;;;;;20.90;98.89;100653.50;1826381;78;25581;-47
2023/08/18 05:25:56;;;;;;;77.80;72.78;;;;;;;20.96;99.56;100652.59;1823664;78;25543;-47
2023/08/18 05:28:29;;;;;;;58.63;54.53;;;;;;;20.97;99.17;100654.97;1802856;78;28348;-48
2023/08/18 05:30:56;;;;;;;78.65;73.70;;;;;;;21.02;99.98;100658.78;1823638;78;25572;-52
2023/08/18 05:33:22;;;;;;;83.50;77.90;;;;;;;21.08;100.00;100659.27;1823695;78;25598;-46
2023/08/18 05:35:49;;;;;;;82.90;77.32;;;;;;;21.14;100.00;100655.61;1823656;78;25533;-45
2023/08/18 05:38:17;;;;;;;84.32;78.50;;;;;;;21.18;100.00;100648.99;1823703;78;25446;-45
2023/08/18 05:40:49;;;;;;;84.35;78.85;;;;;;;21.24;99.75;100659.08;1823700;78;28125;-45
2023/08/18 05:43:20;;;;;;;82.33;76.95;;;;;;;21.30;100.00;100660.35;1827887;78;25564;-45
2023/08/18 05:45:48;;;;;;;83.52;78.33;;;;;;;21.40;100.00;100654.75;1829834;77;25420;-48
2023/08/18 05:48:16;;;;;;;84.92;79.55;;;;;;;21.49;100.00;100661.38;1829775;77;25550;-46
2023/08/18 05:50:42;;;;;;;84.03;78.70;;;;;;;21.60;100.00;100659.55;1829841;78;25434;-47
2023/08/18 05:53:08;;;;;;;74.82;70.08;;;;;;;21.68;100.00;100664.57;1829723;78;27474;-45
2023/08/18 05:55:35;;;;;;;75.28;70.55;;;;;;;21.77;100.00;100661.70;1829610;77;25428;-46
2023/08/18 05:58:04;;;;;;;83.42;78.22;;;;;;;21.85;100.00;100658.47;1829748;77;25399;-45
2023/08/18 06:00:32;;;;;;;87.20;81.70;;;;;;;21.94;100.00;100659.53;1829856;78;25530;-45
2023/08/18 06:02:59;;;;;;;84.97;78.78;;;;;;;22.03;100.00;100654.50;1829765;77;25557;-47
2023/08/18 06:05:27;;;;;;;86.55;80.83;;;;;;;22.14;100.00;100665.05;1829985;78;28043;-49
2023/08/18 06:07:56;;;;;;;84.35;79.10;;;;;;;22.25;100.00;100661.00;1829706;77;25361;-47
2023/08/18 06:10:23;;;;;;;86.12;80.70;;;;;;;22.36;100.00;100657.80;1829848;77;25442;-45
2023/08/18 06:12:51;;;;;;;85.60;80.22;;;;;;;22.47;100.00;100650.98;1829718;77;25490;-46
2023/08/18 06:15:20;;;;;;;81.40;75.65;;;;;;;22.54;100.00;100659.34;1829765;78;25604;-49
2023/08/18 06:17:49;;;;;;;81.82;76.67;;;;;;;22.60;100.00;100652.88;1829762;77;28035;-48
2023/08/18 06:20:16;;;;;;;80.97;75.30;;;;;;;22.63;100.00;100655.44;1829660;77;25546;-46
2023/08/18 06:22:43;;;;;;;83.25;77.67;;;;;;;22.67;100.00;100659.03;1829794;77;25435;-46
2023/08/18 06:25:11;;;;;;;69.45;64.53;;;;;;;22.73;100.00;100654.72;1829715;77;25518;-51
2023/08/18 06:27:39;;;;;;;87.00;81.30;;;;;;;22.76;100.00;100647.06;1829937;78;25609;-46
2023/08/18 06:30:07;;;;;;;83.10;77.78;;;;;;;22.85;100.00;100650.86;1829862;77;27472;-45
2023/08/18 06:32:34;;;;;;;82.97;77.03;;;;;;;22.86;99.78;100652.45;1829980;77;25562;-46
2023/08/18 06:35:00;;;;;;;81.22;75.90;;;;;;;22.87;100.00;100647.94;1829908;78;25420;-46
2023/08/18 06:37:27;;;;;;;83.07;77.87;;;;;;;22.91;99.65;100650.72;1829863;78;25555;-47
2023/08/18 06:39:54;;;;;;;85.67;79.95;;;;;;;22.98;99.74;100653.51;1829940;78;25563;-46
2023/08/18 06:42:23;;;;;;;81.05;76.05;;;;;;;23.05;99.88;100653.55;1828432;78;27488;-47
2023/08/18 06:44:49;;;;;;;81.20;76.00;;;;;;;23.10;99.45;100646.91;1823731;78;25598;-47
2023/08/18 06:47:16;;;;;;;78.83;73.72;;;;;;;23.17;99.03;100646.94;1823905;78;25573;-48
2023/08/18 06:49:43;;;;;;;80.70;75.40;;;;;;;23.25;99.05;100640.87;1823868;78;25621;-46
2023/08/18 06:52:09;;;;;;;80.20;75.08;;;;;;;23.37;99.82;100644.67;1823933;78;25397;-48
2023/08/18 06:54:36;;;;;;;81.12;75.92;;;;;;;23.49;100.00;100636.03;1823727;78;27493;-47
2023/08/18 06:57:04;;;;;;;84.25;77.60;;;;;;;23.68;100.00;100639.08;1823588;78;25959;-50
2023/08/18 06:59:30;;;;;;;67.00;62.60;;;;;;;23.76;99.93;100637.11;1823689;78;25356;-56
2023/08/18 07:01:56;;;;;;;14.40;11.08;;;;;;;23.85;98.47;100643.09;1823809;78;25615;-51
2023/08/18 07:04:22;;;;;;;15.65;9.35;;;;;;;23.85;98.44;100643.09;1823754;78;25377;-52
2023/08/18 07:06:48;;;;;;;13.05;9.03;;;;;;;23.83;97.47;100641.89;1823764;78;27407;-51
2023/08/18 07:09:15;;;;;;;10.68;8.78;;;;;;;23.82;95.69;100642.48;1823677;78;25592;-51
2023/08/18 07:11:42;;;;;;;13.93;10.78;;;;;;;23.85;96.45;100643.09;1823789;78;25353;-54
2023/08/18 07:14:08;;;;;;;16.75;11.38;;;;;;;23.97;100.00;100637.80;1823742;78;25526;-52
2023/08/18 07:16:34;;;;;;;13.10;10.65;;;;;;;24.08;100.00;100636.41;1823767;78;25367;-54
2023/08/18 07:19:00;;;;;;;10.08;9.08;;;;;;;24.15;98.38;100641.94;1823784;78;27549;-53
2023/08/18 07:21:26;;;;;;;11.80;9.00;;;;;;;24.15;95.86;100640.56;1823684;78;25792;-51
2023/08/18 07:23:53;;;;;;;11.43;9.65;;;;;;;24.17;95.23;100638.19;1823720;78;25557;-51
2023/08/18 07:26:19;;;;;;;12.30;10.43;;;;;;;24.26;95.68;100639.17;1823730;78;26021;-54
2023/08/18 07:28:46;;;;;;;11.25;10.15;;;;;;;24.36;95.27;100633.45;1803559;78;25558;-55
2023/08/18 07:31:12;;;;;;;12.15;10.20;;;;;;;24.47;94.47;100641.73;1823696;78;29571;-53
2023/08/18 07:33:38;;;;;;;14.47;11.10;;;;;;;24.59;95.15;100638.02;1823617;78;25583;-51
2023/08/18 07:36:07;;;;;;;11.78;10.32;;;;;;;24.79;95.94;100641.73;1823743;78;25495;-53
2023/08/18 07:38:35;;;;;;;13.32;11.97;;;;;;;24.98;94.96;100637.77;1823836;78;25518;-54
2023/08/18 07:41:02;;;;;;;13.88;11.50;;;;;;;25.19;95.39;100636.11;1823786;78;25383;-50
2023/08/18 07:43:28;;;;;;;11.88;10.58;;;;;;;25.42;95.54;100639.79;1823546;77;27481;-51
2023/08/18 07:45:56;;;;;;;12.07;9.80;;;;;;;25.64;91.52;100641.86;1823615;78;25719;-54
2023/08/18 07:48:24;;;;;;;12.47;10.00;;;;;;;25.80;89.69;100638.02;1823713;78;25357;-49
2023/08/18 07:50:51;;;;;;;11.73;10.45;;;;;;;25.99;88.20;100645.05;1823683;78;25552;-52
2023/08/18 07:53:17;;;;;;;18.20;10.90;;;;;;;26.17;88.67;100638.58;1823768;78;25615;-52
2023/08/18 07:55:43;;;;;;;17.00;10.20;;;;;;;26.39;89.01;100645.55;1822565;78;27501;-51
2023/08/18 07:58:10;;;;;;;11.00;9.90;;;;;;;26.66;87.88;100649.08;1822135;78;25770;-50
2023/08/18 08:00:37;;;;;;;14.63;10.95;;;;;;;26.93;87.24;100654.75;1822236;78;25789;-51
2023/08/18 08:03:06;;;;;;;12.05;10.78;;;;;;;27.16;85.58;100645.00;1822161;78;25673;-50
2023/08/18 08:05:32;;;;;;;13.00;10.30;;;;;;;27.36;83.19;100649.33;1822439;78;25696;-50
2023/08/18 08:07:59;;;;;;;12.63;10.28;;;;;;;27.54;82.88;100642.95;1822203;78;27535;-48
2023/08/18 08:10:25;;;;;;;11.10;10.10;;;;;;;27.84;81.89;100647.49;1822396;78;25704;-52
2023/08/18 08:12:51;;;;;;;13.43;11.48;;;;;;;28.12;81.80;100647.70;1823725;78;25545;-51
2023/08/18 08:15:19;;;;;;;73.95;69.70;;;;;;;28.40;80.80;100654.81;1803119;78;25633;-51
2023/08/18 08:17:47;;;;;;;74.27;69.87;;;;;;;28.68;78.10;100647.97;1823738;78;25439;-49
2023/08/18 08:20:16;;;;;;;72.85;68.60;;;;;;;28.92;76.20;100653.50;1802886;78;27752;-48
2023/08/18 08:22:50;;;;;;;72.10;67.90;;;;;;;29.18;75.07;100653.21;1823596;78;25981;-48
2023/08/18 08:25:18;;;;;;;72.47;68.15;;;;;;;29.48;74.94;100654.81;1823757;78;25384;-48
2023/08/18 08:27:45;;;;;;;71.53;66.37;;;;;;;28.89;73.76;100508.20;1823660;78;25439;-49
2023/08/18 08:30:13;;;;;;;74.47;69.62;;;;;;;;;;1823690;78;25364;-50
2023/08/18 08:32:40;;;;;;;3.80;3.70;;;;;;;;;;1823702;78;27485;-49
2023/08/18 08:35:09;;;;;;;22.52;21.55;;;;;;;;;;1823578;78;25515;-47
2023/08/18 08:37:51;;;;;;;11.67;11.20;;;;;;;31.04;66.44;100655.64;1925276;74;25494;-49
